Time;durP1;ratioP1;P1;durP2;ratioP2;P2;SDS_P1;SDS_P2;PMS_P1;PMS_P2;Temp;Humidity;BMP_temperature;BMP_pressure;BME280_temperature;BME280_humidity;BME280_pressure;Samples;Min_cycle;Max_cycle;Signal;HPM_P1;HPM_P2
2021/03/29 00:01:08;;;;;;;3.20;1.90;;;11.30;99.90;;;;;;5054056;28;20452;-81
2021/03/29 00:03:35;;;;;;;4.07;2.00;;;11.30;99.90;;;;;;5053953;28;20959;-81
2021/03/29 00:06:02;;;;;;;5.10;2.30;;;11.30;99.90;;;;;;5047645;28;20476;-82
2021/03/29 00:08:31;;;;;;;4.40;1.70;;;11.30;99.90;;;;;;5051940;28;20452;-81
2021/03/29 00:10:58;;;;;;;4.27;1.90;;;11.30;99.90;;;;;;5053827;28;20506;-81
2021/03/29 00:13:26;;;;;;;3.93;1.97;;;11.40;99.90;;;;;;5053870;28;20480;-81
2021/03/29 00:15:55;;;;;;;2.50;1.80;;;11.30;99.90;;;;;;5053882;28;20471;-81
2021/03/29 00:18:22;;;;;;;4.93;2.10;;;11.30;99.90;;;;;;5048096;28;20449;-81
2021/03/29 00:20:51;;;;;;;2.60;1.73;;;11.30;99.90;;;;;;5033687;28;20499;-80
2021/03/29 00:23:19;;;;;;;4.10;2.00;;;11.30;99.90;;;;;;5034096;28;20540;-80
2021/03/29 00:25:45;;;;;;;5.23;2.40;;;11.30;99.90;;;;;;5033971;28;20978;-80
2021/03/29 00:28:11;;;;;;;4.00;1.80;;;11.30;99.90;;;;;;5033946;28;20460;-80
2021/03/29 00:30:42;;;;;;;1.60;1.50;;;11.20;99.90;;;;;;5033818;28;20454;-80
2021/03/29 00:33:09;;;;;;;4.70;2.00;;;11.30;99.90;;;;;;5033779;28;20456;-80
2021/03/29 00:35:37;;;;;;;5.10;2.40;;;11.30;99.90;;;;;;5033527;28;20481;-80
2021/03/29 00:38:05;;;;;;;8.37;1.93;;;11.30;99.90;;;;;;5033468;28;20979;-79
2021/03/29 00:40:33;;;;;;;4.50;1.83;;;11.30;99.90;;;;;;5033587;28;20452;-80
2021/03/29 00:43:07;;;;;;;4.73;2.17;;;11.30;99.90;;;;;;5033770;28;20853;-80
2021/03/29 00:45:34;;;;;;;3.70;2.20;;;11.30;99.90;;;;;;5033436;28;20449;-80
2021/03/29 00:48:01;;;;;;;5.00;1.90;;;11.30;99.90;;;;;;5032780;28;20579;-80
2021/03/29 00:50:31;;;;;;;3.87;2.00;;;11.30;99.90;;;;;;5033334;28;20476;-80
2021/03/29 00:52:58;;;;;;;4.97;2.70;;;11.30;99.90;;;;;;5033462;28;20967;-80
2021/03/29 00:55:25;;;;;;;3.53;2.60;;;11.30;99.90;;;;;;5033050;28;20481;-80
2021/03/29 00:57:53;;;;;;;5.77;2.13;;;11.30;99.90;;;;;;5033331;28;20457;-80
2021/03/29 01:00:24;;;;;;;5.20;2.20;;;11.30;99.90;;;;;;5033096;28;20457;-79
2021/03/29 01:02:51;;;;;;;5.27;2.03;;;11.30;99.90;;;;;;5039210;28;20457;-80
2021/03/29 01:05:20;;;;;;;5.03;2.30;;;11.30;99.90;;;;;;5053122;28;20864;-79
2021/03/29 01:07:48;;;;;;;4.83;2.13;;;11.30;99.90;;;;;;5053055;28;20484;-80
2021/03/29 01:10:14;;;;;;;2.47;2.03;;;11.30;99.90;;;;;;5052963;28;20455;-80
2021/03/29 01:12:42;;;;;;;3.10;1.83;;;11.30;99.90;;;;;;5052873;28;20484;-80
2021/03/29 01:15:15;;;;;;;5.17;2.33;;;11.30;99.90;;;;;;5052693;28;20511;-80
2021/03/29 01:17:43;;;;;;;3.30;1.93;;;11.30;99.90;;;;;;5053003;28;20860;-80
2021/03/29 01:20:19;;;;;;;3.23;2.17;;;11.30;99.90;;;;;;5052883;28;20777;-80
2021/03/29 01:22:48;;;;;;;5.00;2.20;;;11.20;99.90;;;;;;5052877;28;20537;-80
2021/03/29 01:25:22;;;;;;;1.90;1.70;;;11.30;99.90;;;;;;5052802;28;21006;-79
2021/03/29 01:27:54;;;;;;;7.07;2.00;;;11.30;99.90;;;;;;5052866;28;20527;-80
2021/03/29 01:30:23;;;;;;;3.43;2.00;;;11.30;99.90;;;;;;5052896;28;20993;-80
2021/03/29 01:32:50;;;;;;;5.60;2.17;;;11.30;99.90;;;;;;5052796;28;20455;-80
2021/03/29 01:35:20;;;;;;;4.23;2.13;;;11.30;99.90;;;;;;5052450;28;20556;-80
2021/03/29 01:37:47;;;;;;;3.43;2.23;;;11.20;99.90;;;;;;5052250;28;20456;-79
2021/03/29 01:40:15;;;;;;;2.53;1.70;;;11.20;99.90;;;;;;5052489;28;20455;-79
2021/03/29 01:42:42;;;;;;;2.57;2.13;;;11.20;99.90;;;;;;5052740;28;20451;-80
2021/03/29 01:45:10;;;;;;;6.60;2.30;;;11.10;99.90;;;;;;5052502;28;20506;-80
2021/03/29 01:47:37;;;;;;;4.00;2.00;;;11.10;99.90;;;;;;5052378;28;20484;-80
2021/03/29 01:50:08;;;;;;;3.80;1.70;;;11.10;99.90;;;;;;5052516;28;20883;-80
2021/03/29 01:52:37;;;;;;;5.73;2.37;;;11.10;99.90;;;;;;5052501;28;20449;-80
2021/03/29 01:55:06;;;;;;;2.77;2.07;;;11.20;99.90;;;;;;5051398;28;20483;-80
2021/03/29 01:57:32;;;;;;;3.67;1.90;;;11.10;99.90;;;;;;5051862;28;20531;-80
2021/03/29 01:59:58;;;;;;;4.50;2.30;;;11.20;99.90;;;;;;5054565;28;20471;-81
2021/03/29 02:02:25;;;;;;;2.93;1.80;;;11.10;99.90;;;;;;5056479;28;20448;-76
2021/03/29 02:04:52;;;;;;;3.40;2.17;;;11.20;99.90;;;;;;5056447;28;20439;-78
2021/03/29 02:07:20;;;;;;;7.53;2.17;;;11.20;99.90;;;;;;5056519;28;20487;-79
2021/03/29 02:09:46;;;;;;;3.67;2.30;;;11.20;99.90;;;;;;5056440;28;20476;-79
2021/03/29 02:12:14;;;;;;;2.93;2.33;;;11.10;99.90;;;;;;5056437;28;20449;-80
2021/03/29 02:14:42;;;;;;;3.37;2.07;;;11.20;99.90;;;;;;5055948;28;20535;-79
2021/03/29 02:17:09;;;;;;;5.03;2.23;;;11.20;99.90;;;;;;5055870;28;20816;-78
2021/03/29 02:19:37;;;;;;;3.07;1.60;;;11.20;99.90;;;;;;5056125;28;20455;-79
2021/03/29 02:22:04;;;;;;;8.00;2.70;;;11.20;99.90;;;;;;5056323;28;20482;-79
2021/03/29 02:24:31;;;;;;;4.77;1.83;;;11.20;99.90;;;;;;5056264;28;20464;-77
2021/03/29 02:26:59;;;;;;;3.97;1.87;;;11.20;99.90;;;;;;5056032;28;20471;-78
2021/03/29 02:29:27;;;;;;;6.30;2.40;;;11.20;99.90;;;;;;5056008;28;20486;-78
2021/03/29 02:31:54;;;;;;;7.10;1.97;;;11.10;99.90;;;;;;5055722;28;20966;-77
2021/03/29 02:34:22;;;;;;;4.23;2.10;;;11.10;99.90;;;;;;5055966;28;21029;-77
2021/03/29 02:36:50;;;;;;;4.90;2.10;;;10.90;99.90;;;;;;5056050;28;20810;-77
2021/03/29 02:39:16;;;;;;;3.17;2.47;;;10.90;99.90;;;;;;5056147;28;20533;-78
2021/03/29 02:41:42;;;;;;;3.43;2.00;;;10.80;99.90;;;;;;5056186;28;20535;-78
2021/03/29 02:44:11;;;;;;;7.17;2.30;;;10.70;99.90;;;;;;5055958;28;20448;-78
2021/03/29 02:46:38;;;;;;;4.40;2.23;;;10.70;99.90;;;;;;5055706;28;20598;-78
2021/03/29 02:49:05;;;;;;;8.93;2.10;;;10.60;99.90;;;;;;5056074;28;20448;-77
2021/03/29 02:51:33;;;;;;;5.03;2.20;;;10.60;99.90;;;;;;5055877;28;20483;-77
2021/03/29 02:54:03;;;;;;;4.20;2.40;;;10.60;99.90;;;;;;5055664;28;20448;-89
2021/03/29 02:56:32;;;;;;;4.63;2.53;;;10.60;99.90;;;;;;5055752;28;20456;-80
2021/03/29 02:59:02;;;;;;;6.20;2.70;;;10.60;99.90;;;;;;5055808;28;20538;-78
2021/03/29 03:01:31;;;;;;;3.23;1.80;;;10.70;99.90;;;;;;5055671;28;20443;-79
2021/03/29 03:03:58;;;;;;;4.77;2.33;;;10.60;99.90;;;;;;5055479;28;20451;-79
2021/03/29 03:06:28;;;;;;;5.53;2.40;;;10.60;99.90;;;;;;5055336;28;20476;-78
2021/03/29 03:08:54;;;;;;;11.30;3.37;;;10.60;99.90;;;;;;5055482;28;20448;-78
2021/03/29 03:11:22;;;;;;;5.40;3.03;;;10.60;99.90;;;;;;5054726;28;20484;-79
2021/03/29 03:13:50;;;;;;;7.50;2.87;;;10.70;99.90;;;;;;5055147;28;20531;-79
2021/03/29 03:16:16;;;;;;;3.70;2.67;;;10.60;99.90;;;;;;5054853;28;20513;-80
2021/03/29 03:18:43;;;;;;;7.17;2.43;;;10.60;99.90;;;;;;5055251;28;20452;-80
2021/03/29 03:21:14;;;;;;;4.17;2.40;;;10.70;99.90;;;;;;5055107;28;20456;-80
2021/03/29 03:23:50;;;;;;;6.50;3.20;;;10.60;99.90;;;;;;5055137;28;20479;-79
2021/03/29 03:26:16;;;;;;;3.00;1.90;;;10.70;99.90;;;;;;5054752;28;20483;-80
2021/03/29 03:28:43;;;;;;;4.37;1.83;;;10.70;99.90;;;;;;5046435;28;20987;-80
2021/03/29 03:31:09;;;;;;;6.90;2.77;;;10.80;99.90;;;;;;5051486;28;20922;-80
2021/03/29 03:33:36;;;;;;;4.23;2.17;;;10.80;99.90;;;;;;5054773;28;20448;-80
2021/03/29 03:36:02;;;;;;;3.70;1.87;;;10.80;99.90;;;;;;5054735;28;20452;-79
2021/03/29 03:38:30;;;;;;;5.00;2.30;;;10.80;99.90;;;;;;5054681;28;20549;-79
2021/03/29 03:41:02;;;;;;;2.00;1.80;;;10.80;99.90;;;;;;5054381;28;20542;-79
2021/03/29 03:43:29;;;;;;;3.43;1.90;;;10.80;99.90;;;;;;5054501;28;20468;-79
2021/03/29 03:46:02;;;;;;;2.30;1.93;;;10.80;99.90;;;;;;5054750;28;20815;-78
2021/03/29 03:48:30;;;;;;;8.73;2.00;;;10.80;99.90;;;;;;5054486;28;20536;-79
2021/03/29 03:50:57;;;;;;;5.53;2.20;;;10.80;99.90;;;;;;5050628;28;20459;-79
2021/03/29 03:53:27;;;;;;;5.90;2.43;;;10.80;99.90;;;;;;5054117;28;20562;-78
2021/03/29 03:55:54;;;;;;;5.60;2.47;;;10.80;99.90;;;;;;5054054;28;20476;-78
2021/03/29 03:58:21;;;;;;;8.10;2.87;;;10.80;99.90;;;;;;5054367;28;20456;-78
2021/03/29 04:00:49;;;;;;;5.23;2.30;;;10.80;99.90;;;;;;5054391;28;20449;-78
2021/03/29 04:03:16;;;;;;;6.87;2.43;;;10.90;99.90;;;;;;5054025;28;20911;-78
2021/03/29 04:05:42;;;;;;;3.50;2.50;;;10.90;99.90;;;;;;5054098;28;20445;-79
2021/03/29 04:08:09;;;;;;;3.63;2.07;;;10.90;99.90;;;;;;5054028;28;20484;-78
2021/03/29 04:10:41;;;;;;;3.50;2.40;;;10.90;99.90;;;;;;5054082;28;20459;-78
2021/03/29 04:13:10;;;;;;;5.03;2.40;;;10.90;99.90;;;;;;5054116;28;20499;-78
2021/03/29 04:15:36;;;;;;;7.10;2.50;;;10.90;99.90;;;;;;5054032;28;20514;-78
2021/03/29 04:18:03;;;;;;;3.20;2.20;;;10.90;99.90;;;;;;5053832;28;20488;-79
2021/03/29 04:20:31;;;;;;;6.73;2.60;;;10.90;99.90;;;;;;5053521;28;20510;-79
2021/03/29 04:22:57;;;;;;;4.37;2.33;;;10.90;99.90;;;;;;5052944;28;20448;-78
2021/03/29 04:25:23;;;;;;;2.63;2.43;;;10.90;99.90;;;;;;5054021;28;20543;-78
2021/03/29 04:27:49;;;;;;;3.33;2.13;;;10.80;99.90;;;;;;5053817;28;20808;-78
2021/03/29 04:30:16;;;;;;;3.07;2.50;;;10.80;99.90;;;;;;5053620;28;20460;-78
2021/03/29 04:32:46;;;;;;;7.43;3.07;;;10.70;99.90;;;;;;5053704;28;20451;-77
2021/03/29 04:35:14;;;;;;;6.87;2.97;;;10.70;99.90;;;;;;5053524;28;20449;-78
2021/03/29 04:37:41;;;;;;;3.00;1.90;;;10.70;99.90;;;;;;5053564;28;20452;-78
2021/03/29 04:40:08;;;;;;;3.90;2.50;;;10.60;99.90;;;;;;5053273;28;20452;-78
2021/03/29 04:42:34;;;;;;;7.67;2.77;;;10.70;99.90;;;;;;5053499;28;20505;-78
2021/03/29 04:45:01;;;;;;;3.83;2.63;;;10.60;99.90;;;;;;5053346;28;20448;-78
2021/03/29 04:47:27;;;;;;;4.17;2.80;;;10.60;99.90;;;;;;5053234;28;20480;-78
2021/03/29 04:49:53;;;;;;;3.40;2.53;;;10.60;99.90;;;;;;5053123;28;20943;-78
2021/03/29 04:52:19;;;;;;;4.43;2.73;;;10.60;99.90;;;;;;5053331;28;20484;-78
2021/03/29 04:54:46;;;;;;;5.50;2.70;;;10.60;99.90;;;;;;5053105;28;20973;-78
2021/03/29 04:57:12;;;;;;;4.17;2.37;;;10.60;99.90;;;;;;5053533;28;20832;-78
2021/03/29 04:59:38;;;;;;;5.40;2.73;;;10.70;99.90;;;;;;5053253;28;20444;-78
2021/03/29 05:02:04;;;;;;;4.40;2.50;;;10.70;99.90;;;;;;5053389;28;20444;-78
2021/03/29 05:04:30;;;;;;;9.03;3.40;;;10.70;99.90;;;;;;5053115;28;20448;-78
2021/03/29 05:06:56;;;;;;;5.97;2.80;;;10.70;99.90;;;;;;5053020;28;20515;-78
2021/03/29 05:09:22;;;;;;;7.00;2.90;;;10.70;99.90;;;;;;5053144;28;20463;-79
2021/03/29 05:11:50;;;;;;;3.40;2.37;;;10.80;99.90;;;;;;5053076;28;20455;-78
2021/03/29 05:14:19;;;;;;;7.80;2.70;;;10.80;99.90;;;;;;5052984;28;20472;-78
2021/03/29 05:16:45;;;;;;;4.70;2.77;;;10.80;99.90;;;;;;5052839;28;20451;-78
2021/03/29 05:19:12;;;;;;;4.30;2.77;;;10.80;99.90;;;;;;5053057;28;20540;-80
2021/03/29 05:21:39;;;;;;;6.63;3.40;;;10.80;99.90;;;;;;5052993;28;20449;-80
2021/03/29 05:24:06;;;;;;;3.93;3.30;;;10.90;99.90;;;;;;5052935;28;20880;-79
2021/03/29 05:26:33;;;;;;;2.93;2.67;;;10.90;99.90;;;;;;5052857;28;20827;-79
2021/03/29 05:29:00;;;;;;;6.13;2.90;;;10.90;99.90;;;;;;5052741;28;20448;-79
2021/03/29 05:31:26;;;;;;;4.67;2.47;;;10.90;99.90;;;;;;5052889;28;20479;-79
2021/03/29 05:33:52;;;;;;;4.83;2.63;;;11.00;99.90;;;;;;5052543;28;20459;-79
2021/03/29 05:36:18;;;;;;;7.80;3.20;;;11.00;99.90;;;;;;5052764;28;20866;-79
2021/03/29 05:38:45;;;;;;;7.10;2.80;;;11.10;99.90;;;;;;5052672;28;20491;-80
2021/03/29 05:41:12;;;;;;;6.40;3.30;;;11.20;99.90;;;;;;5052482;28;20939;-80
2021/03/29 05:43:39;;;;;;;8.83;3.23;;;11.30;99.90;;;;;;5052708;28;20456;-79
2021/03/29 05:46:06;;;;;;;6.30;3.20;;;11.40;99.90;;;;;;5052743;28;20479;-81
2021/03/29 05:48:32;;;;;;;4.83;2.87;;;11.50;99.90;;;;;;5052799;28;20519;-80
2021/03/29 05:51:03;;;;;;;6.20;3.37;;;11.60;99.90;;;;;;5052653;28;20460;-79
2021/03/29 05:53:38;;;;;;;8.27;2.30;;;11.60;99.90;;;;;;5051784;28;20444;-80
2021/03/29 05:56:07;;;;;;;3.73;2.40;;;11.60;99.90;;;;;;5052290;28;20482;-79
2021/03/29 05:58:40;;;;;;;3.57;2.63;;;11.60;99.90;;;;;;5052521;28;20506;-80
2021/03/29 06:01:08;;;;;;;5.30;3.00;;;11.70;99.90;;;;;;5052321;28;20452;-79
2021/03/29 06:03:39;;;;;;;8.43;3.30;;;11.80;99.90;;;;;;5052480;28;20448;-81
2021/03/29 06:06:18;;;;;;;2.83;2.60;;;11.90;99.90;;;;;;5052395;28;20448;-80
2021/03/29 06:08:46;;;;;;;5.13;2.73;;;11.90;99.90;;;;;;5052406;28;20509;-80
2021/03/29 06:11:23;;;;;;;3.40;2.80;;;12.00;99.90;;;;;;5052331;28;20452;-80
2021/03/29 06:14:06;;;;;;;7.00;2.63;;;12.00;99.90;;;;;;5052320;28;20811;-80
2021/03/29 06:16:52;;;;;;;5.60;3.03;;;12.10;99.90;;;;;;5032340;28;20511;-80
2021/03/29 06:19:51;;;;;;;6.57;3.50;;;12.10;99.90;;;;;;5032297;28;20460;-80
2021/03/29 06:22:21;;;;;;;5.80;2.90;;;12.10;99.90;;;;;;5032432;28;20454;-80
2021/03/29 06:25:09;;;;;;;6.37;2.77;;;12.10;99.90;;;;;;5032350;28;20491;-80
2021/03/29 06:27:40;;;;;;;3.63;3.10;;;12.10;99.90;;;;;;5032210;28;20481;-80
2021/03/29 06:30:27;;;;;;;3.67;3.20;;;12.20;99.90;;;;;;5032179;28;20485;-80
2021/03/29 06:33:06;;;;;;;5.13;3.40;;;12.20;99.90;;;;;;5032313;28;20445;-80
2021/03/29 06:35:38;;;;;;;6.63;3.13;;;12.40;99.90;;;;;;5032181;28;20455;-80
2021/03/29 06:38:16;;;;;;;4.07;2.40;;;12.40;99.90;;;;;;5032419;28;20445;-80
2021/03/29 06:40:44;;;;;;;6.47;2.80;;;12.60;99.90;;;;;;5032183;28;20467;-81
2021/03/29 06:43:22;;;;;;;6.10;2.93;;;12.70;99.90;;;;;;5032250;28;20441;-79
2021/03/29 06:45:49;;;;;;;5.20;2.60;;;12.90;99.90;;;;;;5032057;28;20449;-79
2021/03/29 06:48:21;;;;;;;2.80;2.23;;;13.00;99.90;;;;;;5035656;28;20481;-80
2021/03/29 06:50:47;;;;;;;5.17;2.70;;;13.10;99.90;;;;;;5035449;28;21271;-80
2021/03/29 06:53:25;;;;;;;6.80;2.77;;;13.20;99.90;;;;;;5035752;28;20543;-80
2021/03/29 06:55:56;;;;;;;6.97;3.30;;;13.30;99.90;;;;;;5035231;28;20476;-80
2021/03/29 06:58:25;;;;;;;6.53;2.77;;;13.40;99.90;;;;;;5035634;28;20449;-79
2021/03/29 07:00:54;;;;;;;3.90;3.17;;;13.60;99.90;;;;;;5035276;28;20457;-79
2021/03/29 07:03:22;;;;;;;6.17;2.50;;;13.80;99.90;;;;;;5045385;28;20540;-80
2021/03/29 07:05:49;;;;;;;8.10;3.07;;;13.90;99.90;;;;;;5055299;28;20855;-79
2021/03/29 07:08:16;;;;;;;4.37;2.53;;;14.00;99.90;;;;;;5055178;28;21056;-79
2021/03/29 07:10:42;;;;;;;6.73;3.23;;;14.20;99.90;;;;;;5055260;28;20466;-79
2021/03/29 07:13:09;;;;;;;6.40;2.90;;;14.30;99.90;;;;;;5055120;28;20448;-78
2021/03/29 07:15:37;;;;;;;6.10;3.33;;;14.40;99.90;;;;;;5055188;28;20484;-81
2021/03/29 07:18:04;;;;;;;5.43;2.63;;;14.50;99.90;;;;;;5050921;28;20471;-78
2021/03/29 07:20:33;;;;;;;4.33;2.47;;;14.50;99.90;;;;;;5055039;28;20928;-78
2021/03/29 07:22:59;;;;;;;6.50;3.40;;;14.60;99.90;;;;;;5054651;28;20440;-78
2021/03/29 07:25:30;;;;;;;9.27;4.20;;;14.70;99.90;;;;;;5054943;28;20456;-78
2021/03/29 07:27:59;;;;;;;12.80;5.80;;;14.80;99.90;;;;;;5038336;28;20506;-78
2021/03/29 07:30:43;;;;;;;4.03;2.80;;;14.80;99.90;;;;;;5049994;28;20449;-78
2021/03/29 07:33:10;;;;;;;4.47;2.33;;;14.80;99.90;;;;;;5054654;28;20452;-78
2021/03/29 07:35:46;;;;;;;8.33;3.17;;;14.80;99.90;;;;;;5054778;28;20449;-78
2021/03/29 07:38:12;;;;;;;4.50;2.40;;;14.80;99.90;;;;;;5054669;28;20459;-78
2021/03/29 07:40:41;;;;;;;6.13;2.73;;;14.90;99.90;;;;;;5054750;28;20472;-78
2021/03/29 07:43:11;;;;;;;6.20;2.57;;;14.90;99.90;;;;;;5054622;28;20974;-78
2021/03/29 07:45:47;;;;;;;5.30;2.77;;;15.00;99.90;;;;;;5054584;28;20498;-78
2021/03/29 07:48:36;;;;;;;3.67;2.10;;;15.10;99.90;;;;;;5054520;28;20484;-78
2021/03/29 07:51:06;;;;;;;6.30;2.90;;;15.10;99.90;;;;;;5054529;28;20437;-78
2021/03/29 07:53:46;;;;;;;7.63;2.83;;;15.20;99.90;;;;;;5054394;28;20881;-78
2021/03/29 07:56:33;;;;;;;5.30;2.87;;;15.20;99.90;;;;;;5054381;28;20990;-78
2021/03/29 07:58:59;;;;;;;3.33;2.13;;;15.30;99.90;;;;;;5053959;28;20472;-78
2021/03/29 08:01:25;;;;;;;15.33;3.50;;;15.40;99.90;;;;;;5054428;28;20458;-78
2021/03/29 08:03:54;;;;;;;6.07;3.40;;;15.40;99.90;;;;;;5053896;28;20971;-78
2021/03/29 08:06:48;;;;;;;5.33;3.07;;;15.50;99.90;;;;;;5054286;28;20449;-78
2021/03/29 08:09:20;;;;;;;3.47;3.13;;;15.60;99.90;;;;;;5054233;28;21161;-78
2021/03/29 08:12:06;;;;;;;4.43;2.77;;;15.80;99.90;;;;;;5053907;28;20823;-78
2021/03/29 08:14:42;;;;;;;2.90;2.27;;;16.00;99.90;;;;;;5054264;28;20448;-78
2021/03/29 08:17:45;;;;;;;8.03;2.20;;;16.10;99.90;;;;;;5054092;28;20826;-81
2021/03/29 08:20:43;;;;;;;5.00;2.90;;;16.30;99.90;;;;;;5054410;28;20437;-82
2021/03/29 08:23:32;;;;;;;3.53;2.10;;;16.60;99.90;;;;;;5053915;28;20448;-78
2021/03/29 08:26:17;;;;;;;3.43;2.70;;;16.80;99.90;;;;;;5050616;28;20452;-79
2021/03/29 08:29:20;;;;;;;4.27;2.70;;;16.90;99.90;;;;;;5050806;28;20487;-79
2021/03/29 08:32:17;;;;;;;7.17;2.63;;;16.90;99.90;;;;;;5053079;28;20451;-79
2021/03/29 08:34:49;;;;;;;6.60;2.70;;;17.00;99.90;;;;;;5053212;28;20449;-79
2021/03/29 08:37:17;;;;;;;5.73;2.60;;;17.10;99.90;;;;;;5053076;28;20820;-79
2021/03/29 08:39:45;;;;;;;7.07;2.50;;;17.10;99.90;;;;;;5053389;28;20506;-79
2021/03/29 08:42:13;;;;;;;5.30;2.17;;;17.10;99.90;;;;;;5053249;28;20449;-79
2021/03/29 08:44:40;;;;;;;9.93;2.43;;;17.20;99.90;;;;;;5053038;28;20847;-79
2021/03/29 08:47:09;;;;;;;4.70;2.40;;;17.40;99.90;;;;;;5053020;28;20498;-79
2021/03/29 08:49:36;;;;;;;9.80;2.97;;;17.40;99.90;;;;;;5053184;28;20448;-79
2021/03/29 08:52:02;;;;;;;6.27;2.23;;;17.50;99.90;;;;;;5053258;28;20461;-79
2021/03/29 08:54:28;;;;;;;5.83;2.23;;;17.40;99.90;;;;;;5052835;28;20500;-79
2021/03/29 08:57:02;;;;;;;7.80;2.27;;;17.30;99.90;;;;;;5053147;28;20463;-78
2021/03/29 08:59:31;;;;;;;3.47;2.30;;;17.30;99.90;;;;;;5052931;28;20445;-79
2021/03/29 09:01:57;;;;;;;10.60;2.33;;;17.40;99.90;;;;;;5053112;28;20468;-78
2021/03/29 09:04:23;;;;;;;3.73;2.10;;;17.40;99.90;;;;;;5045798;28;20483;-78
2021/03/29 09:10:24;;;;;;;4.33;2.93;;;17.60;99.90;;;;;;4990853;28;20938;-78
2021/03/29 09:12:55;;;;;;;5.20;2.37;;;17.70;99.90;;;;;;5025579;28;20449;-78
2021/03/29 09:15:24;;;;;;;4.77;2.10;;;17.70;99.90;;;;;;5052900;28;20492;-78
2021/03/29 09:18:01;;;;;;;6.27;2.33;;;17.70;99.90;;;;;;5052708;28;21013;-78
2021/03/29 09:20:29;;;;;;;4.30;1.70;;;17.80;99.90;;;;;;5052900;28;20452;-78
2021/03/29 09:22:55;;;;;;;4.33;2.07;;;18.00;99.90;;;;;;5049608;28;20455;-78
2021/03/29 09:25:25;;;;;;;6.30;2.53;;;18.30;99.90;;;;;;5052639;28;20444;-78
2021/03/29 09:28:21;;;;;;;8.30;2.50;;;18.50;99.90;;;;;;5052714;28;20484;-78
2021/03/29 09:30:51;;;;;;;4.80;2.13;;;18.70;99.90;;;;;;5052806;28;20978;-78
2021/03/29 09:33:18;;;;;;;4.40;1.77;;;18.90;99.90;;;;;;5049709;28;20854;-79
2021/03/29 09:35:45;;;;;;;7.23;2.53;;;18.90;99.90;;;;;;5052415;28;20448;-78
2021/03/29 09:38:11;;;;;;;7.70;2.10;;;19.10;99.90;;;;;;5050239;28;20543;-78
2021/03/29 09:40:38;;;;;;;6.17;2.17;;;19.10;99.90;;;;;;5041875;28;20963;-78
2021/03/29 09:43:05;;;;;;;7.93;2.60;;;19.20;99.90;;;;;;5047951;28;20532;-78
2021/03/29 09:45:33;;;;;;;4.47;1.83;;;19.20;99.90;;;;;;5052397;28;20543;-78
2021/03/29 09:48:05;;;;;;;4.40;2.30;;;19.30;99.90;;;;;;5052504;28;20483;-78
2021/03/29 09:50:34;;;;;;;3.83;1.90;;;19.20;99.90;;;;;;5052564;28;20982;-78
2021/03/29 09:53:15;;;;;;;3.60;1.90;;;19.10;99.90;;;;;;5048574;28;20457;-79
2021/03/29 09:55:47;;;;;;;6.43;2.37;;;18.90;99.90;;;;;;5050312;28;20476;-79
2021/03/29 09:58:22;;;;;;;5.63;2.40;;;18.60;99.90;;;;;;5049533;28;20974;-79
2021/03/29 10:00:49;;;;;;;3.83;2.43;;;18.40;99.90;;;;;;5048895;28;20877;-78
2021/03/29 10:03:17;;;;;;;5.23;2.00;;;18.30;99.90;;;;;;5041343;28;20452;-79
2021/03/29 10:05:44;;;;;;;5.93;2.27;;;18.10;99.90;;;;;;5051887;28;20449;-78
2021/03/29 10:08:11;;;;;;;3.83;1.93;;;18.00;99.90;;;;;;5051849;28;20487;-79
2021/03/29 10:10:37;;;;;;;4.23;2.50;;;18.00;99.90;;;;;;5051608;28;20993;-78
2021/03/29 10:13:10;;;;;;;4.43;2.50;;;18.00;99.90;;;;;;5052017;28;20535;-78
2021/03/29 10:15:38;;;;;;;5.17;2.50;;;18.10;99.90;;;;;;5048408;28;20467;-78
2021/03/29 10:18:13;;;;;;;3.93;2.23;;;18.10;99.90;;;;;;5048832;28;20577;-78
2021/03/29 10:20:42;;;;;;;5.23;2.03;;;18.30;99.90;;;;;;5051231;28;20535;-79
2021/03/29 10:23:26;;;;;;;2.13;1.60;;;18.50;99.90;;;;;;5055804;28;20856;-79
2021/03/29 10:26:12;;;;;;;4.33;1.80;;;18.70;99.90;;;;;;5055987;28;20811;-79
2021/03/29 10:28:38;;;;;;;6.93;2.27;;;18.80;99.90;;;;;;5055502;28;20483;-78
2021/03/29 10:31:04;;;;;;;6.37;2.80;;;18.90;99.90;;;;;;5055635;28;20440;-79
2021/03/29 10:33:30;;;;;;;8.10;3.13;;;19.00;99.90;;;;;;5055791;28;20448;-79
2021/03/29 10:35:57;;;;;;;8.90;2.50;;;19.10;99.90;;;;;;5055689;28;20535;-79
2021/03/29 10:38:23;;;;;;;7.60;2.27;;;19.20;99.90;;;;;;5055635;28;20468;-79
2021/03/29 10:40:50;;;;;;;4.70;2.17;;;19.40;99.90;;;;;;5055517;28;20472;-79
2021/03/29 10:43:16;;;;;;;5.60;2.43;;;19.60;99.90;;;;;;5055485;28;20448;-79
2021/03/29 10:45:42;;;;;;;9.33;2.40;;;19.60;99.90;;;;;;5055154;28;20853;-79
2021/03/29 10:48:08;;;;;;;6.80;2.37;;;19.70;99.90;;;;;;5055612;28;20999;-79
2021/03/29 10:50:34;;;;;;;6.70;2.53;;;19.60;99.90;;;;;;5055327;28;20449;-79
2021/03/29 10:53:01;;;;;;;5.23;1.90;;;19.70;99.90;;;;;;5055399;28;20455;-79
2021/03/29 10:55:28;;;;;;;4.73;2.20;;;19.70;99.90;;;;;;5054981;28;20479;-79
2021/03/29 10:58:04;;;;;;;5.03;2.00;;;19.60;99.90;;;;;;5055137;28;20951;-79
2021/03/29 11:00:33;;;;;;;7.20;2.20;;;19.40;99.90;;;;;;5054821;28;20463;-79
2021/03/29 11:02:59;;;;;;;3.90;2.43;;;19.40;99.90;;;;;;5055256;28;20498;-79
2021/03/29 11:05:25;;;;;;;6.30;2.50;;;19.30;99.90;;;;;;5055183;28;20520;-79
2021/03/29 11:07:51;;;;;;;4.97;2.53;;;19.10;99.90;;;;;;5055023;28;20874;-79
2021/03/29 11:10:18;;;;;;;9.13;3.00;;;18.90;99.90;;;;;;5055046;28;20533;-78
2021/03/29 11:12:44;;;;;;;5.17;1.80;;;18.80;99.90;;;;;;5055017;28;20498;-79
2021/03/29 11:15:12;;;;;;;3.63;1.87;;;18.90;99.90;;;;;;5055139;28;20448;-79
2021/03/29 11:17:38;;;;;;;6.37;2.50;;;19.00;99.90;;;;;;5055443;28;20450;-79
2021/03/29 11:20:06;;;;;;;7.70;2.03;;;19.00;99.90;;;;;;5055271;28;20451;-79
2021/03/29 11:22:32;;;;;;;4.70;2.23;;;19.20;99.90;;;;;;5055011;28;20491;-79
2021/03/29 11:24:59;;;;;;;3.30;1.80;;;19.30;99.90;;;;;;5054987;28;20491;-79
2021/03/29 11:27:26;;;;;;;3.53;1.53;;;19.40;99.90;;;;;;5054974;28;20558;-79
2021/03/29 11:29:52;;;;;;;3.10;1.40;;;19.50;99.90;;;;;;5055020;28;20531;-79
2021/03/29 11:32:18;;;;;;;2.63;1.70;;;19.60;99.90;;;;;;5054556;28;20459;-79
2021/03/29 11:34:45;;;;;;;3.33;1.80;;;19.60;99.90;;;;;;5054957;28;20618;-79
2021/03/29 11:37:11;;;;;;;5.47;2.20;;;19.60;99.90;;;;;;5054855;28;20484;-79
2021/03/29 11:39:38;;;;;;;5.17;2.07;;;19.50;99.90;;;;;;5054769;28;20490;-78
2021/03/29 11:42:05;;;;;;;4.90;2.00;;;19.40;99.90;;;;;;5054649;28;20981;-79
2021/03/29 11:44:31;;;;;;;6.53;2.00;;;19.10;99.90;;;;;;5054785;28;20506;-79
2021/03/29 11:46:58;;;;;;;5.40;1.70;;;19.00;99.90;;;;;;5054737;28;20448;-79
2021/03/29 11:49:24;;;;;;;3.87;1.90;;;18.90;99.90;;;;;;5054768;28;20495;-79
2021/03/29 11:51:50;;;;;;;4.20;1.70;;;18.90;99.90;;;;;;5054546;28;20452;-79
2021/03/29 11:54:16;;;;;;;4.17;1.80;;;19.00;99.90;;;;;;5054386;28;20480;-79
2021/03/29 11:56:42;;;;;;;3.87;1.67;;;19.10;99.90;;;;;;5054389;28;20803;-78
2021/03/29 11:59:11;;;;;;;4.87;1.87;;;19.40;99.90;;;;;;5054637;28;20472;-79
2021/03/29 12:01:43;;;;;;;4.30;1.50;;;19.70;99.90;;;;;;5054493;28;20448;-78
2021/03/29 12:04:13;;;;;;;3.00;1.77;;;20.00;99.90;;;;;;5054428;28;20518;-79
2021/03/29 12:06:44;;;;;;;4.93;1.50;;;20.20;99.90;;;;;;5054248;28;21009;-79
2021/03/29 12:09:18;;;;;;;2.47;1.57;;;20.20;98.90;;;;;;5054148;28;20567;-79
2021/03/29 12:11:59;;;;;;;6.53;1.83;;;20.20;99.30;;;;;;5054303;28;20542;-79
2021/03/29 12:14:27;;;;;;;1.80;1.43;;;20.30;98.40;;;;;;5054207;28;20486;-79
2021/03/29 12:16:55;;;;;;;2.40;1.70;;;20.50;98.00;;;;;;5054135;28;20936;-79
2021/03/29 12:19:21;;;;;;;4.03;1.90;;;20.60;97.40;;;;;;5054062;28;20444;-79
2021/03/29 12:21:50;;;;;;;10.73;4.93;;;20.80;97.70;;;;;;5053991;28;20456;-79
2021/03/29 12:24:20;;;;;;;6.40;2.07;;;20.90;96.50;;;;;;5054107;28;20472;-79
2021/03/29 12:26:47;;;;;;;4.23;1.70;;;20.80;96.50;;;;;;5054186;28;20545;-79
2021/03/29 12:29:16;;;;;;;3.83;1.60;;;20.90;96.50;;;;;;5053833;28;20483;-79
2021/03/29 12:31:43;;;;;;;3.73;2.30;;;20.90;96.00;;;;;;5053996;28;20543;-79
2021/03/29 12:34:11;;;;;;;4.33;1.77;;;21.00;96.20;;;;;;5053608;28;20955;-79
2021/03/29 12:36:47;;;;;;;2.93;1.70;;;21.00;96.20;;;;;;5053725;28;20499;-79
2021/03/29 12:39:19;;;;;;;2.60;1.40;;;20.90;95.70;;;;;;5053822;28;20459;-78
2021/03/29 12:41:52;;;;;;;2.60;2.10;;;20.80;96.10;;;;;;5053567;28;20495;-79
2021/03/29 12:44:19;;;;;;;3.00;1.97;;;20.70;96.00;;;;;;5052785;28;20437;-79
2021/03/29 12:46:49;;;;;;;3.70;1.80;;;20.60;95.70;;;;;;5053335;28;21002;-78
2021/03/29 12:49:17;;;;;;;4.40;1.80;;;20.60;95.70;;;;;;5053346;28;20563;-78
2021/03/29 12:51:45;;;;;;;5.53;2.00;;;20.50;95.80;;;;;;5053398;28;20456;-79
2021/03/29 12:54:14;;;;;;;5.73;1.80;;;20.40;95.70;;;;;;5053420;28;20526;-79
2021/03/29 12:56:42;;;;;;;2.77;2.40;;;20.40;95.90;;;;;;5053309;28;20452;-79
2021/03/29 12:59:09;;;;;;;2.03;1.70;;;20.50;95.90;;;;;;5053261;28;20502;-79
2021/03/29 13:01:37;;;;;;;7.20;2.37;;;20.60;96.00;;;;;;5053315;28;20452;-79